createdAt,value
2022-08-07T00:04:49.077Z,100.00
2022-08-07T00:10:11.062Z,99.58
2022-08-07T00:15:16.356Z,99.41
2022-08-07T00:20:29.749Z,98.21
2022-08-07T00:25:41.464Z,97.60
2022-08-07T00:30:44.676Z,97.53
2022-08-07T00:35:49.605Z,97.94
2022-08-07T00:40:54.108Z,98.00
2022-08-07T00:45:57.116Z,97.70
2022-08-07T00:51:00.373Z,97.51
2022-08-07T00:56:05.425Z,98.39
2022-08-07T01:01:17.150Z,98.02
2022-08-07T01:06:20.465Z,99.58
2022-08-07T01:12:24.104Z,99.26
2022-08-07T01:16:50.757Z,99.53
2022-08-07T01:21:56.133Z,98.93
2022-08-07T01:27:00.215Z,99.21
2022-08-07T01:32:05.221Z,98.73
2022-08-07T01:37:12.255Z,98.67
2022-08-07T01:42:39.014Z,99.26
2022-08-07T01:48:18.155Z,99.12
2022-08-07T01:53:08.761Z,99.38
2022-08-07T01:58:27.300Z,99.38
2022-08-07T02:03:42.775Z,99.58
2022-08-07T02:08:55.247Z,100.00
2022-08-07T02:14:02.373Z,100.00
2022-08-07T02:20:04.797Z,100.00
2022-08-07T02:24:31.799Z,100.00
2022-08-07T02:29:43.536Z,100.00
2022-08-07T02:34:58.197Z,100.00
2022-08-07T02:40:29.823Z,100.00
2022-08-07T02:46:00.971Z,100.00
2022-08-07T02:50:53.640Z,100.00
2022-08-07T02:56:03.622Z,100.00
2022-08-07T03:01:15.953Z,100.00
2022-08-07T03:06:32.083Z,100.00
2022-08-07T03:11:38.920Z,100.00
2022-08-07T03:16:54.647Z,100.00
2022-08-07T03:21:58.728Z,100.00
2022-08-07T03:27:04.494Z,100.00
2022-08-07T03:32:13.319Z,100.00
2022-08-07T03:37:19.210Z,100.00
2022-08-07T03:42:34.708Z,100.00
2022-08-07T03:47:45.026Z,100.00
2022-08-07T03:52:54.889Z,100.00
2022-08-07T03:58:34.252Z,100.00
2022-08-07T04:03:23.109Z,100.00
2022-08-07T04:08:26.716Z,100.00
2022-08-07T04:14:09.284Z,100.00
2022-08-07T04:18:59.634Z,100.00
2022-08-07T04:24:10.446Z,100.00
2022-08-07T04:29:48.909Z,100.00
2022-08-07T04:34:57.832Z,100.00
2022-08-07T04:40:00.909Z,100.00
2022-08-07T04:45:08.204Z,100.00
2022-08-07T04:50:13.252Z,100.00
2022-08-07T04:58:07.936Z,100.00
2022-08-07T05:00:48.251Z,100.00
2022-08-07T05:05:57.446Z,100.00
2022-08-07T05:11:06.514Z,100.00
2022-08-07T05:16:15.425Z,100.00
2022-08-07T05:21:59.073Z,100.00
2022-08-07T05:26:46.222Z,100.00
2022-08-07T05:31:52.928Z,100.00
2022-08-07T05:36:56.892Z,100.00
2022-08-07T05:42:05.333Z,100.00
2022-08-07T05:47:18.713Z,99.26
2022-08-07T05:52:36.091Z,97.27
2022-08-07T05:57:42.238Z,96.67
2022-08-07T06:02:49.297Z,96.36
2022-08-07T06:08:13.717Z,95.32
2022-08-07T06:13:15.985Z,94.16
2022-08-07T06:18:21.553Z,92.77
2022-08-07T06:24:36.944Z,90.06
2022-08-07T06:28:52.791Z,89.19
2022-08-07T06:33:57.253Z,88.48
2022-08-07T06:40:13.611Z,87.61
2022-08-07T06:44:25.594Z,85.21
2022-08-07T06:49:35.532Z,84.42
2022-08-07T06:55:33.879Z,83.17
2022-08-07T07:00:18.971Z,82.70
2022-08-07T07:06:03.074Z,82.08
2022-08-07T07:10:54.785Z,81.61
2022-08-07T07:16:05.228Z,81.43
2022-08-07T07:21:19.559Z,79.05
2022-08-07T07:26:33.330Z,78.50
2022-08-07T07:31:44.543Z,76.31
2022-08-07T07:36:54.236Z,75.15
2022-08-07T07:42:08.800Z,75.33
2022-08-07T07:47:23.042Z,74.50
2022-08-07T07:52:42.463Z,74.03
2022-08-07T07:57:53.814Z,71.50
2022-08-07T08:03:05.064Z,70.61
2022-08-07T08:08:35.417Z,70.53
2022-08-07T08:13:43.802Z,70.20
2022-08-07T08:19:00.412Z,69.79
2022-08-07T08:24:48.058Z,69.00
2022-08-07T08:30:04.365Z,68.92
2022-08-07T08:35:10.584Z,66.21
2022-08-07T08:40:23.510Z,66.83
2022-08-07T08:45:58.435Z,65.16
2022-08-07T08:51:03.388Z,65.64
2022-08-07T08:56:24.592Z,65.25
2022-08-07T09:01:40.053Z,65.18
2022-08-07T09:06:54.557Z,64.37
2022-08-07T09:12:30.778Z,64.09
2022-08-07T09:18:00.382Z,63.37
2022-08-07T09:24:31.970Z,62.07
2022-08-07T09:30:00.560Z,60.70
2022-08-07T09:34:08.356Z,60.45
2022-08-07T09:39:52.972Z,59.94
2022-08-07T09:47:50.259Z,59.73
2022-08-07T09:50:20.088Z,60.98
2022-08-07T09:55:36.852Z,60.62
2022-08-07T10:01:08.369Z,60.54
2022-08-07T10:06:25.737Z,39.33
2022-08-07T10:12:02.287Z,36.45
2022-08-07T10:17:14.509Z,42.11
2022-08-07T10:22:33.701Z,46.28
2022-08-07T10:27:51.096Z,47.39
2022-08-07T10:33:08.468Z,47.35
2022-08-07T10:38:35.881Z,46.01
2022-08-07T10:43:54.349Z,44.51
2022-08-07T10:49:15.958Z,44.95
2022-08-07T10:54:33.602Z,45.72
2022-08-07T10:59:47.472Z,44.92
2022-08-07T11:05:01.082Z,44.86
2022-08-07T11:10:17.927Z,45.46
2022-08-07T11:15:31.405Z,45.31
2022-08-07T11:20:40.538Z,45.14
2022-08-07T11:25:50.165Z,43.24
2022-08-07T11:30:56.112Z,42.86
2022-08-07T11:36:10.459Z,37.60
2022-08-07T11:41:22.112Z,39.25
2022-08-07T11:46:44.827Z,39.57
2022-08-07T11:52:00.331Z,40.50
2022-08-07T11:57:12.740Z,40.80
2022-08-07T12:02:30.317Z,40.30
2022-08-07T12:07:39.032Z,40.13
2022-08-07T12:12:45.019Z,40.56
2022-08-07T12:17:59.280Z,39.61
2022-08-07T12:23:37.211Z,39.03
2022-08-07T12:28:49.856Z,37.86
2022-08-07T12:34:01.952Z,39.19
2022-08-07T12:39:09.493Z,39.65
2022-08-07T12:44:33.686Z,39.52
2022-08-07T12:49:48.733Z,40.21
2022-08-07T12:55:03.761Z,39.21
2022-08-07T13:00:16.606Z,38.15
2022-08-07T13:06:04.113Z,39.57
2022-08-07T13:11:17.053Z,39.63
2022-08-07T13:16:28.321Z,41.24
2022-08-07T13:21:50.433Z,42.02
2022-08-07T13:27:05.437Z,43.22
2022-08-07T13:32:31.173Z,42.82
2022-08-07T13:37:58.777Z,42.22
2022-08-07T13:43:06.407Z,42.17
2022-08-07T13:48:27.392Z,41.93
2022-08-07T13:54:00.160Z,42.41
2022-08-07T13:59:10.250Z,41.11
2022-08-07T14:04:21.445Z,40.92
2022-08-07T14:10:00.937Z,40.74
2022-08-07T14:14:52.479Z,40.66
2022-08-07T14:20:44.581Z,39.78
2022-08-07T14:25:26.279Z,39.78
2022-08-07T14:30:34.063Z,41.25
2022-08-07T14:35:47.407Z,41.91
2022-08-07T14:40:55.236Z,41.75
2022-08-07T14:45:59.559Z,42.01
2022-08-07T14:51:07.424Z,42.10
2022-08-07T14:56:30.380Z,44.06
2022-08-07T15:01:42.934Z,44.55
2022-08-07T15:06:58.467Z,46.62
2022-08-07T15:12:09.764Z,47.31
2022-08-07T15:17:55.286Z,46.03
2022-08-07T15:28:34.827Z,47.19
2022-08-07T15:33:43.063Z,49.03
2022-08-07T15:38:59.099Z,49.92
2022-08-07T15:50:03.922Z,48.65
2022-08-07T15:55:02.318Z,49.03
2022-08-07T16:00:06.920Z,49.54
2022-08-07T16:05:15.897Z,49.76
2022-08-07T16:10:23.051Z,50.40
2022-08-07T16:15:42.111Z,49.86
2022-08-07T16:22:01.254Z,49.93
2022-08-07T16:26:36.068Z,50.95
2022-08-07T16:31:51.723Z,51.04
2022-08-07T16:38:06.500Z,51.17
2022-08-07T16:42:53.549Z,51.51
2022-08-07T16:48:28.443Z,51.38
2022-08-07T16:54:06.394Z,51.81
2022-08-07T16:59:18.345Z,52.42
2022-08-07T17:04:34.161Z,53.76
2022-08-07T17:10:06.939Z,54.51
2022-08-07T17:15:19.413Z,54.57
2022-08-07T17:20:30.905Z,54.88
2022-08-07T17:25:51.119Z,55.74
2022-08-07T17:31:16.073Z,56.80
2022-08-07T17:36:26.117Z,57.32
2022-08-07T17:42:04.235Z,56.89
2022-08-07T17:47:03.601Z,57.37
2022-08-07T17:52:12.872Z,57.72
2022-08-07T17:57:20.027Z,60.53
2022-08-07T18:02:29.171Z,59.81
2022-08-07T18:07:43.746Z,60.05
2022-08-07T18:13:11.412Z,60.49
2022-08-07T18:18:46.695Z,61.03
2022-08-07T18:24:00.623Z,61.98
2022-08-07T18:30:04.308Z,62.60
2022-08-07T18:35:00.688Z,63.78
2022-08-07T18:40:38.599Z,65.03
2022-08-07T18:46:21.937Z,65.15
2022-08-07T18:51:18.325Z,65.03
2022-08-07T18:56:57.909Z,66.06
2022-08-07T19:02:33.112Z,66.68
2022-08-07T19:07:51.201Z,67.87
2022-08-07T19:12:59.567Z,68.33
2022-08-07T19:18:34.441Z,68.66
2022-08-07T19:23:59.111Z,69.15
2022-08-07T19:30:55.625Z,71.06
2022-08-07T19:34:33.724Z,71.98
2022-08-07T19:39:56.434Z,73.10
2022-08-07T19:45:08.633Z,73.58
2022-08-07T19:50:41.536Z,74.74
2022-08-07T19:55:56.764Z,74.76
2022-08-07T20:01:01.684Z,75.38
2022-08-07T20:06:06.438Z,75.95
2022-08-07T20:11:34.155Z,75.90
2022-08-07T20:16:48.082Z,75.97
2022-08-07T20:21:58.054Z,77.55
2022-08-07T20:27:07.457Z,78.44
2022-08-07T20:32:22.210Z,78.88
2022-08-07T20:37:34.137Z,79.38
2022-08-07T20:42:56.439Z,79.69
2022-08-07T20:48:00.041Z,80.46
2022-08-07T20:53:03.227Z,81.25
2022-08-07T20:58:19.268Z,81.59
2022-08-07T21:03:26.008Z,82.23
2022-08-07T21:08:36.632Z,82.66
2022-08-07T21:14:29.794Z,83.93
2022-08-07T21:19:14.035Z,84.25
2022-08-07T21:24:21.356Z,84.58
2022-08-07T21:29:33.433Z,85.04
2022-08-07T21:34:46.251Z,85.80
2022-08-07T21:39:54.934Z,86.49
2022-08-07T21:45:41.997Z,86.82
2022-08-07T21:50:33.202Z,86.95
2022-08-07T21:55:42.504Z,86.86
2022-08-07T22:00:50.207Z,86.48
2022-08-07T22:05:56.157Z,86.82
2022-08-07T22:11:00.684Z,87.90
2022-08-07T22:16:43.139Z,88.54
2022-08-07T22:22:04.984Z,90.89
2022-08-07T22:27:03.127Z,91.13
2022-08-07T22:32:12.948Z,91.10
2022-08-07T22:38:03.212Z,91.16
2022-08-07T22:42:54.292Z,91.75
2022-08-07T22:48:31.402Z,91.17
2022-08-07T22:54:07.385Z,91.48
2022-08-07T22:59:14.553Z,91.53
2022-08-07T23:04:29.939Z,91.79
2022-08-07T23:10:04.036Z,91.73
2022-08-07T23:15:10.600Z,91.82
2022-08-07T23:20:52.379Z,93.46
2022-08-07T23:26:02.865Z,94.10
2022-08-07T23:32:50.242Z,94.26
2022-08-07T23:37:18.627Z,94.62
2022-08-07T23:42:21.792Z,93.91
2022-08-07T23:47:42.120Z,92.93
2022-08-07T23:53:06.560Z,92.68
2022-08-07T23:58:18.764Z,92.69
